Time;durP1;ratioP1;P1;durP2;ratioP2;P2;SDS_P1;SDS_P2;PMS_P1;PMS_P2;Temp;Humidity;BMP_temperature;BMP_pressure;BME280_temperature;BME280_humidity;BME280_pressure;Samples;Min_cycle;Max_cycle;Signal;HPM_P1;HPM_P2
2023/07/02 00:00:01;;;;;;;2.40;2.00;;;19.50;99.90;;;;;;4827358;29;20065;-76
2023/07/02 00:02:27;;;;;;;3.15;2.03;;;19.60;99.90;;;;;;4825082;29;20496;-76
2023/07/02 00:04:55;;;;;;;3.67;2.35;;;19.60;99.90;;;;;;4832034;29;20054;-76
2023/07/02 00:07:22;;;;;;;2.20;1.95;;;19.60;99.90;;;;;;4828824;29;20417;-76
2023/07/02 00:09:49;;;;;;;2.50;2.30;;;19.60;99.90;;;;;;4824309;29;20058;-77
2023/07/02 00:12:16;;;;;;;4.28;2.28;;;19.60;99.90;;;;;;4824112;29;20145;-77
2023/07/02 00:14:42;;;;;;;5.00;2.40;;;19.60;99.90;;;;;;4826065;29;20072;-77
2023/07/02 00:17:12;;;;;;;2.85;2.40;;;19.50;99.90;;;;;;4824125;29;20050;-78
2023/07/02 00:19:41;;;;;;;2.58;2.38;;;19.60;99.90;;;;;;4831441;29;20050;-77
2023/07/02 00:22:09;;;;;;;5.03;2.47;;;19.60;99.90;;;;;;4826623;29;20046;-77
2023/07/02 00:24:36;;;;;;;4.15;2.25;;;19.60;99.90;;;;;;4824428;29;20064;-77
2023/07/02 00:27:04;;;;;;;3.42;2.78;;;19.60;99.90;;;;;;4824477;29;20054;-78
2023/07/02 00:29:31;;;;;;;4.15;2.45;;;19.60;99.90;;;;;;4825817;29;20046;-76
2023/07/02 00:31:57;;;;;;;2.65;2.40;;;19.60;99.90;;;;;;4824757;29;20058;-77
2023/07/02 00:34:24;;;;;;;3.05;2.22;;;19.60;99.90;;;;;;4830308;29;20165;-77
2023/07/02 00:36:52;;;;;;;4.68;2.70;;;19.50;99.90;;;;;;4829390;29;20051;-78
2023/07/02 00:39:19;;;;;;;3.22;2.60;;;19.60;99.90;;;;;;4823884;29;20513;-77
2023/07/02 00:41:48;;;;;;;3.05;2.38;;;19.60;99.90;;;;;;4824746;29;20114;-77
2023/07/02 00:44:15;;;;;;;2.90;2.00;;;19.60;99.90;;;;;;4829519;29;20046;-77
2023/07/02 00:46:42;;;;;;;3.53;2.55;;;19.60;99.90;;;;;;4831395;29;20058;-77
2023/07/02 00:49:10;;;;;;;5.38;2.42;;;19.60;99.90;;;;;;4846684;29;20130;-76
2023/07/02 00:51:37;;;;;;;3.00;2.60;;;19.60;99.90;;;;;;4839980;29;20083;-78
2023/07/02 00:54:04;;;;;;;3.47;2.30;;;19.60;99.90;;;;;;4833722;29;20058;-76
2023/07/02 00:56:31;;;;;;;3.75;2.92;;;19.60;99.90;;;;;;4841441;29;20047;-77
2023/07/02 00:58:58;;;;;;;6.18;2.58;;;19.60;99.90;;;;;;4842679;29;20059;-76
2023/07/02 01:01:27;;;;;;;3.28;2.72;;;19.60;99.90;;;;;;4831542;29;20429;-76
2023/07/02 01:03:59;;;;;;;5.75;2.60;;;19.60;99.90;;;;;;4834549;29;20512;-77
2023/07/02 01:06:36;;;;;;;4.28;2.47;;;19.60;99.90;;;;;;4829475;29;20162;-76
2023/07/02 01:09:06;;;;;;;4.75;3.05;;;19.60;99.90;;;;;;4827225;29;20058;-76
2023/07/02 01:11:36;;;;;;;4.38;2.97;;;19.60;99.90;;;;;;4827770;29;20058;-76
2023/07/02 01:14:14;;;;;;;5.03;3.03;;;19.60;99.90;;;;;;4829760;29;20050;-77
2023/07/02 01:16:43;;;;;;;5.00;2.72;;;19.60;99.90;;;;;;4809187;29;20082;-76
2023/07/02 01:19:21;;;;;;;7.65;2.88;;;19.60;99.90;;;;;;4833579;29;20054;-76
2023/07/02 01:21:49;;;;;;;4.78;2.75;;;19.60;99.90;;;;;;4828898;29;20457;-76
2023/07/02 01:24:17;;;;;;;4.28;2.80;;;19.60;99.90;;;;;;4827704;29;20569;-77
2023/07/02 01:26:45;;;;;;;5.05;3.00;;;19.60;99.90;;;;;;4808929;29;20091;-77
2023/07/02 01:29:17;;;;;;;4.90;3.28;;;19.60;99.90;;;;;;4833180;29;20573;-77
2023/07/02 01:31:45;;;;;;;5.45;2.70;;;19.60;99.90;;;;;;4828634;29;20065;-76
2023/07/02 01:34:12;;;;;;;3.58;2.67;;;19.60;99.90;;;;;;4838449;29;20114;-77
2023/07/02 01:36:40;;;;;;;5.57;3.33;;;19.60;99.90;;;;;;4827922;29;20057;-77
2023/07/02 01:39:07;;;;;;;5.82;3.03;;;19.60;99.90;;;;;;4828036;29;20055;-76
2023/07/02 01:41:44;;;;;;;5.63;3.10;;;19.60;99.90;;;;;;4827280;29;20521;-76
2023/07/02 01:44:11;;;;;;;4.35;3.42;;;19.50;99.90;;;;;;4816201;29;20054;-77
2023/07/02 01:46:38;;;;;;;7.65;3.63;;;19.50;99.90;;;;;;4813608;29;20536;-77
2023/07/02 01:49:04;;;;;;;7.13;3.28;;;19.50;99.90;;;;;;4826454;29;20054;-76
2023/07/02 01:51:32;;;;;;;7.20;3.10;;;19.50;99.90;;;;;;4827174;29;20046;-77
2023/07/02 01:53:58;;;;;;;4.03;3.08;;;19.50;99.90;;;;;;4827150;29;20054;-77
2023/07/02 01:56:26;;;;;;;5.55;3.30;;;19.50;99.90;;;;;;4826100;29;20061;-78
2023/07/02 01:58:53;;;;;;;5.43;3.50;;;19.50;99.90;;;;;;4831922;29;20050;-77
2023/07/02 02:01:20;;;;;;;6.88;3.03;;;19.50;99.90;;;;;;4828180;29;20431;-77
2023/07/02 02:03:47;;;;;;;4.85;3.15;;;19.40;99.90;;;;;;4837075;29;20057;-76
2023/07/02 02:06:14;;;;;;;4.88;3.40;;;19.40;99.90;;;;;;4826684;29;20062;-77
2023/07/02 02:08:40;;;;;;;6.22;2.90;;;19.40;99.90;;;;;;4827262;29;20054;-77
2023/07/02 02:11:07;;;;;;;4.30;3.10;;;19.40;99.90;;;;;;4826264;29;20054;-77
2023/07/02 02:13:34;;;;;;;7.97;3.25;;;19.50;99.90;;;;;;4830784;29;20267;-77
2023/07/02 02:16:00;;;;;;;6.78;3.80;;;19.40;99.90;;;;;;4829500;29;20091;-77
2023/07/02 02:18:27;;;;;;;7.78;3.42;;;19.40;99.90;;;;;;4828938;29;20424;-77
2023/07/02 02:20:54;;;;;;;7.30;3.42;;;19.40;99.90;;;;;;4826309;29;20054;-77
2023/07/02 02:23:21;;;;;;;7.68;3.67;;;19.40;99.90;;;;;;4827116;29;20043;-77
2023/07/02 02:25:47;;;;;;;6.50;3.50;;;19.40;99.90;;;;;;4826256;29;20131;-77
2023/07/02 02:28:14;;;;;;;5.97;3.47;;;19.40;99.90;;;;;;4830577;29;20102;-77
2023/07/02 02:30:41;;;;;;;5.75;3.58;;;19.40;99.90;;;;;;4813284;29;20062;-77
2023/07/02 02:33:08;;;;;;;7.50;3.97;;;19.40;99.90;;;;;;4832217;29;20050;-77
2023/07/02 02:35:34;;;;;;;6.60;3.92;;;19.40;99.90;;;;;;4812403;29;20113;-77
2023/07/02 02:38:04;;;;;;;5.88;3.83;;;19.30;99.90;;;;;;4826577;29;20054;-76
2023/07/02 02:40:31;;;;;;;6.22;4.13;;;19.30;99.90;;;;;;4825424;29;20053;-76
2023/07/02 02:42:57;;;;;;;9.57;3.70;;;19.40;99.90;;;;;;4829303;29;20058;-77
2023/07/02 02:45:24;;;;;;;8.07;4.00;;;19.40;99.90;;;;;;4830775;29;20088;-77
2023/07/02 02:47:51;;;;;;;7.20;3.58;;;19.40;99.90;;;;;;4825717;29;20080;-77
2023/07/02 02:50:18;;;;;;;6.82;3.80;;;19.40;99.90;;;;;;4824861;29;20054;-77
2023/07/02 02:52:45;;;;;;;10.38;3.88;;;19.40;99.90;;;;;;4826103;29;20058;-77
2023/07/02 02:55:12;;;;;;;7.55;3.17;;;19.40;99.90;;;;;;4826091;29;20054;-76
2023/07/02 02:57:39;;;;;;;6.28;3.80;;;19.40;99.90;;;;;;4827496;29;20496;-76
2023/07/02 03:00:09;;;;;;;4.90;3.75;;;19.30;99.90;;;;;;4831383;29;20054;-76
2023/07/02 03:02:36;;;;;;;6.50;3.67;;;19.30;99.90;;;;;;4829386;29;20046;-77
2023/07/02 03:05:04;;;;;;;8.75;4.22;;;19.40;99.90;;;;;;4825228;29;20054;-77
2023/07/02 03:07:31;;;;;;;8.38;4.35;;;19.30;99.90;;;;;;4825689;29;20054;-76
2023/07/02 03:09:58;;;;;;;7.60;4.57;;;19.40;99.90;;;;;;4825896;29;20090;-77
2023/07/02 03:12:26;;;;;;;11.32;5.45;;;19.40;99.90;;;;;;4827385;29;20402;-77
2023/07/02 03:14:55;;;;;;;12.20;6.45;;;19.30;99.90;;;;;;4831554;29;20046;-77
2023/07/02 03:17:22;;;;;;;8.75;5.78;;;19.30;99.90;;;;;;4808946;29;20087;-77
2023/07/02 03:19:49;;;;;;;13.48;6.90;;;19.30;99.90;;;;;;4828119;29;20061;-77
2023/07/02 03:22:16;;;;;;;12.98;7.20;;;19.30;99.90;;;;;;4824964;29;20093;-77
2023/07/02 03:24:43;;;;;;;11.07;6.85;;;19.30;99.90;;;;;;4807874;29;20101;-77
2023/07/02 03:27:09;;;;;;;9.60;5.88;;;19.30;99.90;;;;;;4825446;29;20106;-77
2023/07/02 03:29:38;;;;;;;12.43;6.63;;;19.30;99.90;;;;;;4832884;29;20171;-76
2023/07/02 03:32:05;;;;;;;14.48;7.13;;;19.30;99.90;;;;;;4810288;29;20058;-77
2023/07/02 03:34:32;;;;;;;16.02;7.78;;;19.30;99.90;;;;;;4824812;29;20042;-77
2023/07/02 03:36:59;;;;;;;13.15;8.00;;;19.30;99.90;;;;;;4826924;29;20054;-77
2023/07/02 03:39:25;;;;;;;14.02;7.63;;;19.30;99.90;;;;;;4826574;29;20042;-77
2023/07/02 03:41:52;;;;;;;16.88;7.70;;;19.30;99.90;;;;;;4828777;29;20054;-77
2023/07/02 03:44:19;;;;;;;17.10;8.20;;;19.30;99.90;;;;;;4832956;29;20590;-78
2023/07/02 03:46:46;;;;;;;13.60;8.00;;;19.20;99.90;;;;;;4825777;29;20084;-77
2023/07/02 03:49:13;;;;;;;12.90;8.38;;;19.20;99.90;;;;;;4824465;29;20543;-77
2023/07/02 03:51:40;;;;;;;16.58;9.15;;;19.20;99.90;;;;;;4808679;29;20060;-77
2023/07/02 03:54:06;;;;;;;19.10;9.02;;;19.20;99.90;;;;;;4827501;29;20054;-77
2023/07/02 03:56:33;;;;;;;15.05;9.05;;;19.20;99.90;;;;;;4826394;29;20540;-77
2023/07/02 03:59:00;;;;;;;14.32;8.80;;;19.20;99.90;;;;;;4833594;29;20053;-77
2023/07/02 04:01:27;;;;;;;16.58;10.05;;;19.20;99.90;;;;;;4824272;29;20071;-77
2023/07/02 04:03:55;;;;;;;17.92;9.85;;;19.20;99.90;;;;;;4825726;29;20047;-76
2023/07/02 04:06:22;;;;;;;15.52;9.57;;;19.10;99.90;;;;;;4824983;29;20072;-77
2023/07/02 04:08:49;;;;;;;15.43;9.50;;;19.20;99.90;;;;;;4829090;29;20061;-77
2023/07/02 04:11:16;;;;;;;19.92;10.57;;;19.20;99.90;;;;;;4809244;29;20095;-77
2023/07/02 04:13:43;;;;;;;18.80;10.35;;;19.20;99.90;;;;;;4835824;29;20054;-76
2023/07/02 04:16:09;;;;;;;20.60;10.88;;;19.20;99.90;;;;;;4824825;29;20471;-77
2023/07/02 04:18:36;;;;;;;20.42;11.85;;;19.20;99.90;;;;;;4824182;29;20099;-78
2023/07/02 04:21:03;;;;;;;19.48;11.05;;;19.10;99.90;;;;;;4824601;29;20078;-77
2023/07/02 04:23:30;;;;;;;19.83;12.13;;;19.10;99.90;;;;;;4830211;29;20089;-77
2023/07/02 04:25:57;;;;;;;23.33;11.80;;;19.10;99.90;;;;;;4833446;29;20058;-77
2023/07/02 04:28:44;;;;;;;18.98;12.32;;;19.10;99.90;;;;;;4844705;29;20062;-77
2023/07/02 04:31:11;;;;;;;21.92;12.43;;;19.10;99.90;;;;;;4823573;29;20525;-77
2023/07/02 04:33:38;;;;;;;20.60;12.38;;;19.10;99.90;;;;;;4835430;29;20050;-76
2023/07/02 04:36:05;;;;;;;26.85;13.43;;;19.10;99.90;;;;;;4834338;29;20054;-77
2023/07/02 04:38:32;;;;;;;23.23;12.80;;;19.10;99.90;;;;;;4833727;29;20513;-77
2023/07/02 04:41:01;;;;;;;23.45;14.05;;;19.10;99.90;;;;;;4824633;29;20503;-77
2023/07/02 04:43:31;;;;;;;21.93;12.60;;;19.10;99.90;;;;;;4833651;29;20126;-77
2023/07/02 04:45:58;;;;;;;23.33;13.48;;;19.00;99.90;;;;;;4823134;29;20529;-77
2023/07/02 04:48:25;;;;;;;22.35;13.00;;;19.00;99.90;;;;;;4822616;29;20058;-76
2023/07/02 04:50:52;;;;;;;23.95;13.00;;;19.10;99.90;;;;;;4822339;29;20082;-77
2023/07/02 04:53:18;;;;;;;23.13;14.05;;;19.10;99.90;;;;;;4829025;29;20524;-76
2023/07/02 04:55:45;;;;;;;26.23;14.13;;;19.10;99.90;;;;;;4824777;29;20058;-76
2023/07/02 04:58:12;;;;;;;25.98;13.82;;;19.10;99.90;;;;;;4828935;29;20548;-76
2023/07/02 05:00:38;;;;;;;25.55;14.48;;;19.00;99.90;;;;;;4823911;29;20118;-76
2023/07/02 05:03:05;;;;;;;24.10;13.95;;;19.10;99.90;;;;;;4824666;29;20180;-76
2023/07/02 05:05:32;;;;;;;23.58;13.70;;;19.10;99.90;;;;;;4822325;29;20090;-76
2023/07/02 05:07:58;;;;;;;24.98;14.98;;;19.10;99.90;;;;;;4829290;29;20058;-76
2023/07/02 05:10:25;;;;;;;24.98;15.77;;;19.10;99.90;;;;;;4825118;29;20062;-76
2023/07/02 05:12:52;;;;;;;29.17;15.30;;;19.10;99.90;;;;;;4829838;29;20100;-75
2023/07/02 05:15:19;;;;;;;24.83;14.38;;;19.10;99.90;;;;;;4823818;29;20094;-75
2023/07/02 05:17:45;;;;;;;32.97;14.82;;;19.10;99.90;;;;;;4824764;29;20054;-76
2023/07/02 05:20:12;;;;;;;26.85;15.75;;;19.10;99.90;;;;;;4823644;29;20050;-76
2023/07/02 05:22:39;;;;;;;28.30;15.30;;;19.10;99.90;;;;;;4828718;29;20054;-76
2023/07/02 05:25:06;;;;;;;29.52;15.68;;;19.10;99.90;;;;;;4826757;29;20125;-76
2023/07/02 05:27:33;;;;;;;33.85;16.13;;;19.20;99.90;;;;;;4830269;29;20602;-76
2023/07/02 05:30:00;;;;;;;25.35;15.23;;;19.10;99.90;;;;;;4808716;29;20119;-76
2023/07/02 05:32:26;;;;;;;32.00;16.38;;;19.20;99.90;;;;;;4827804;29;20058;-77
2023/07/02 05:34:53;;;;;;;27.60;14.95;;;19.20;99.90;;;;;;4826621;29;20051;-76
2023/07/02 05:37:20;;;;;;;28.58;15.57;;;19.20;99.90;;;;;;4830788;29;20092;-76
2023/07/02 05:39:48;;;;;;;27.75;15.50;;;19.20;99.90;;;;;;4830129;29;20054;-76
2023/07/02 05:42:15;;;;;;;27.15;16.40;;;19.20;99.90;;;;;;4833195;29;20050;-76
2023/07/02 05:44:41;;;;;;;27.42;16.25;;;19.20;99.90;;;;;;4826505;29;20072;-76
2023/07/02 05:47:08;;;;;;;30.80;16.23;;;19.30;99.90;;;;;;4829023;29;20059;-76
2023/07/02 05:49:35;;;;;;;29.50;16.70;;;19.30;99.90;;;;;;4824899;29;20586;-76
2023/07/02 05:52:02;;;;;;;27.17;15.65;;;19.30;99.90;;;;;;4833877;29;20054;-76
2023/07/02 05:54:28;;;;;;;31.08;16.05;;;19.30;99.90;;;;;;4830121;29;20054;-76
2023/07/02 05:56:55;;;;;;;29.15;15.45;;;19.40;99.90;;;;;;4813387;29;20137;-76
2023/07/02 05:59:22;;;;;;;31.30;16.50;;;19.40;99.90;;;;;;4827215;29;20501;-77
2023/07/02 06:01:48;;;;;;;30.63;15.70;;;19.40;99.90;;;;;;4829383;29;20057;-76
2023/07/02 06:04:15;;;;;;;31.38;15.57;;;19.50;99.90;;;;;;4827455;29;20104;-77
2023/07/02 06:06:42;;;;;;;28.23;15.68;;;19.50;99.90;;;;;;4832199;29;20058;-77
2023/07/02 06:09:09;;;;;;;26.80;16.10;;;19.50;99.90;;;;;;4828484;29;20502;-77
2023/07/02 06:11:36;;;;;;;32.92;16.85;;;19.50;99.90;;;;;;4825848;29;20054;-77
2023/07/02 06:14:02;;;;;;;29.25;16.23;;;19.50;99.90;;;;;;4826523;29;20081;-78
2023/07/02 06:16:29;;;;;;;31.52;16.05;;;19.50;99.90;;;;;;4827944;29;20150;-77
2023/07/02 06:18:56;;;;;;;25.85;15.73;;;19.50;99.90;;;;;;4823930;29;20153;-77
2023/07/02 06:21:24;;;;;;;27.10;16.30;;;19.50;99.90;;;;;;4831047;29;20056;-77
2023/07/02 06:23:51;;;;;;;25.10;15.88;;;19.50;99.90;;;;;;4832330;29;20054;-77
2023/07/02 06:26:18;;;;;;;31.98;17.15;;;19.50;99.90;;;;;;4825888;29;20058;-76
2023/07/02 06:28:44;;;;;;;31.95;16.73;;;19.50;99.90;;;;;;4825718;29;20145;-77
2023/07/02 06:31:12;;;;;;;30.23;17.13;;;19.50;99.90;;;;;;4827714;29;20054;-77
2023/07/02 06:33:40;;;;;;;32.60;16.85;;;19.60;99.90;;;;;;4826895;29;20095;-77
2023/07/02 06:36:07;;;;;;;28.00;17.35;;;19.60;99.90;;;;;;4829801;29;20081;-77
2023/07/02 06:38:38;;;;;;;30.85;17.77;;;19.60;99.90;;;;;;4826983;29;20505;-77
2023/07/02 06:41:04;;;;;;;35.13;18.75;;;19.60;99.90;;;;;;4824921;29;20055;-77
2023/07/02 06:43:31;;;;;;;25.42;16.67;;;19.60;99.90;;;;;;4825453;29;20077;-77
2023/07/02 06:45:58;;;;;;;34.67;18.10;;;19.60;99.90;;;;;;4826669;29;20131;-77
2023/07/02 06:48:24;;;;;;;29.23;16.92;;;19.60;99.90;;;;;;4827250;29;20089;-77
2023/07/02 06:50:51;;;;;;;35.55;18.80;;;19.60;99.90;;;;;;4827877;29;20085;-77
2023/07/02 06:53:18;;;;;;;31.13;18.23;;;19.60;99.90;;;;;;4833568;29;20080;-77
2023/07/02 06:55:45;;;;;;;31.15;18.10;;;19.70;99.90;;;;;;4823875;29;20084;-77
2023/07/02 06:58:11;;;;;;;32.35;19.00;;;19.70;99.90;;;;;;4825029;29;20080;-77
2023/07/02 07:00:38;;;;;;;33.47;19.58;;;19.70;99.90;;;;;;4826079;29;20119;-77
2023/07/02 07:03:05;;;;;;;36.50;19.20;;;19.70;99.90;;;;;;4827997;29;20058;-76
2023/07/02 07:05:32;;;;;;;33.75;19.52;;;19.70;99.90;;;;;;4828748;29;20050;-77
2023/07/02 07:08:02;;;;;;;37.55;18.35;;;19.80;99.90;;;;;;4836217;29;20142;-77
2023/07/02 07:10:33;;;;;;;37.28;19.67;;;19.80;99.90;;;;;;4833280;29;20058;-77
2023/07/02 07:13:04;;;;;;;30.30;19.35;;;19.80;99.90;;;;;;4834253;29;20126;-77
2023/07/02 07:15:33;;;;;;;36.55;19.42;;;19.80;99.90;;;;;;4836248;29;20051;-76
2023/07/02 07:18:01;;;;;;;34.78;19.55;;;19.90;99.90;;;;;;4836385;29;20079;-77
2023/07/02 07:20:29;;;;;;;33.30;18.65;;;19.90;99.90;;;;;;4835059;29;20051;-76
2023/07/02 07:22:56;;;;;;;37.17;19.08;;;19.90;99.90;;;;;;4842453;29;20054;-76
2023/07/02 07:25:23;;;;;;;33.03;18.63;;;20.00;99.90;;;;;;4836040;29;20054;-77
2023/07/02 07:27:50;;;;;;;34.42;20.13;;;20.00;99.90;;;;;;4833306;29;20057;-77
2023/07/02 07:30:22;;;;;;;34.75;19.15;;;20.10;99.90;;;;;;4831095;29;20753;-77
2023/07/02 07:32:53;;;;;;;30.02;18.63;;;20.20;99.90;;;;;;4814392;29;20153;-77
2023/07/02 07:35:21;;;;;;;27.60;18.70;;;20.30;99.90;;;;;;4823213;29;20081;-77
2023/07/02 07:37:48;;;;;;;36.15;20.27;;;20.40;99.90;;;;;;4828995;29;20054;-77
2023/07/02 07:40:15;;;;;;;48.33;23.08;;;20.50;99.90;;;;;;4824613;29;20050;-77
2023/07/02 07:42:43;;;;;;;34.70;20.75;;;20.60;99.90;;;;;;4809984;29;20047;-76
2023/07/02 07:45:11;;;;;;;34.13;20.02;;;20.70;99.90;;;;;;4823049;29;20489;-77
2023/07/02 07:47:38;;;;;;;31.85;20.80;;;20.70;99.90;;;;;;4828141;29;20112;-77
2023/07/02 07:50:12;;;;;;;36.05;20.50;;;20.80;99.90;;;;;;4829087;29;20046;-77
2023/07/02 07:52:40;;;;;;;32.20;20.45;;;20.80;99.90;;;;;;4827751;29;20111;-77
2023/07/02 07:55:07;;;;;;;39.83;21.02;;;20.90;99.90;;;;;;4823015;29;20083;-76
2023/07/02 07:57:36;;;;;;;35.05;20.80;;;20.90;99.90;;;;;;4822535;29;20054;-77
2023/07/02 08:00:05;;;;;;;37.45;21.17;;;20.90;99.90;;;;;;4826050;29;20057;-77
2023/07/02 08:02:32;;;;;;;33.90;20.27;;;20.90;99.90;;;;;;4828991;29;20046;-77
2023/07/02 08:04:58;;;;;;;33.97;19.70;;;20.90;99.90;;;;;;4829104;29;20052;-77
2023/07/02 08:07:25;;;;;;;36.42;20.73;;;21.00;99.90;;;;;;4824194;29;20050;-77
2023/07/02 08:09:52;;;;;;;34.55;21.77;;;21.00;99.90;;;;;;4824172;29;20050;-76
2023/07/02 08:12:19;;;;;;;32.83;20.42;;;21.10;99.90;;;;;;4828637;29;20059;-76
2023/07/02 08:14:46;;;;;;;39.30;22.45;;;21.30;99.90;;;;;;4834116;29;20058;-77
2023/07/02 08:17:12;;;;;;;36.53;19.95;;;21.40;99.90;;;;;;4833012;29;20401;-78
2023/07/02 08:19:39;;;;;;;34.38;19.70;;;21.60;99.90;;;;;;4827017;29;20074;-76
2023/07/02 08:22:06;;;;;;;33.95;20.50;;;21.80;99.90;;;;;;4825780;29;20115;-76
2023/07/02 08:24:33;;;;;;;32.88;19.92;;;21.90;99.90;;;;;;4822366;29;20509;-76
2023/07/02 08:27:04;;;;;;;35.50;21.58;;;22.00;99.90;;;;;;4822362;29;20054;-75
2023/07/02 08:29:31;;;;;;;33.90;21.90;;;22.10;99.90;;;;;;4823162;29;20078;-75
2023/07/02 08:31:57;;;;;;;33.30;20.52;;;22.20;99.90;;;;;;4830215;29;20103;-76
2023/07/02 08:34:24;;;;;;;29.88;20.58;;;22.30;99.90;;;;;;4824003;29;20528;-76
2023/07/02 08:36:51;;;;;;;35.08;21.17;;;22.40;99.90;;;;;;4822163;29;20061;-76
2023/07/02 08:39:18;;;;;;;34.17;21.65;;;22.50;99.90;;;;;;4822608;29;20046;-78
2023/07/02 08:41:46;;;;;;;32.25;21.30;;;22.50;99.90;;;;;;4809091;29;20137;-78
2023/07/02 08:44:13;;;;;;;36.30;21.35;;;22.50;99.90;;;;;;4821363;29;20098;-75
2023/07/02 08:46:42;;;;;;;35.83;20.17;;;22.60;99.90;;;;;;4830239;29;20072;-76
2023/07/02 08:49:09;;;;;;;33.80;21.48;;;22.60;99.90;;;;;;4824659;29;20129;-76
2023/07/02 08:51:36;;;;;;;33.08;20.70;;;22.60;99.90;;;;;;4822105;29;20099;-76
2023/07/02 08:54:03;;;;;;;33.53;21.13;;;22.60;99.90;;;;;;4822160;29;20054;-76
2023/07/02 08:56:30;;;;;;;34.55;20.65;;;22.70;99.90;;;;;;4824483;29;20479;-75
2023/07/02 08:58:57;;;;;;;37.17;21.27;;;22.70;99.90;;;;;;4818861;29;20448;-76
2023/07/02 09:01:23;;;;;;;32.65;21.30;;;22.80;99.90;;;;;;4829616;29;20046;-76
2023/07/02 09:03:50;;;;;;;32.58;19.90;;;22.80;99.90;;;;;;4826295;29;20496;-76
2023/07/02 09:06:18;;;;;;;32.03;20.08;;;22.90;99.90;;;;;;4825626;29;20130;-75
2023/07/02 09:08:45;;;;;;;35.42;20.35;;;22.90;99.90;;;;;;4809716;29;20109;-75
2023/07/02 09:11:15;;;;;;;32.75;20.70;;;23.00;99.90;;;;;;4828260;29;20050;-77
2023/07/02 09:13:45;;;;;;;32.92;20.75;;;23.00;99.90;;;;;;4825863;29;20087;-78
2023/07/02 09:16:25;;;;;;;34.33;20.20;;;23.00;99.90;;;;;;4833742;29;20718;-75
2023/07/02 09:18:59;;;;;;;27.77;19.30;;;23.00;99.90;;;;;;4825102;29;20054;-76
2023/07/02 09:21:46;;;;;;;31.30;20.63;;;23.00;99.90;;;;;;4824950;29;20137;-77
2023/07/02 09:24:13;;;;;;;39.47;20.85;;;23.00;99.90;;;;;;4823853;29;20078;-76
2023/07/02 09:26:45;;;;;;;39.97;22.10;;;23.10;99.90;;;;;;4827708;29;20050;-76
2023/07/02 09:29:13;;;;;;;34.63;20.30;;;23.10;99.90;;;;;;4825357;29;20050;-76
2023/07/02 09:31:47;;;;;;;33.45;20.85;;;23.00;99.90;;;;;;4833893;29;20057;-75
2023/07/02 09:34:35;;;;;;;30.30;19.73;;;23.10;99.90;;;;;;4824298;29;20054;-76
2023/07/02 09:37:05;;;;;;;32.38;20.63;;;23.10;99.90;;;;;;4824737;29;20129;-76
2023/07/02 09:39:34;;;;;;;33.28;20.30;;;23.10;99.90;;;;;;4824844;29;20047;-77
2023/07/02 09:42:04;;;;;;;30.45;20.17;;;23.10;99.90;;;;;;4826583;29;20050;-79
2023/07/02 09:44:34;;;;;;;30.83;19.65;;;23.20;99.90;;;;;;4826045;29;20177;-77
2023/07/02 09:47:06;;;;;;;32.03;20.75;;;23.10;99.90;;;;;;4831248;29;20331;-76
2023/07/02 09:49:37;;;;;;;30.88;19.80;;;23.20;99.90;;;;;;4824947;29;20050;-77
2023/07/02 09:52:07;;;;;;;38.58;20.70;;;23.30;99.90;;;;;;4824493;29;20054;-76
2023/07/02 09:54:34;;;;;;;33.35;19.98;;;23.30;99.90;;;;;;4823911;29;20122;-76
2023/07/02 09:57:02;;;;;;;27.42;18.13;;;23.40;99.90;;;;;;4827921;29;20142;-77
2023/07/02 09:59:30;;;;;;;29.48;19.52;;;23.40;99.90;;;;;;4829687;29;20074;-77
2023/07/02 10:01:57;;;;;;;31.48;19.95;;;23.50;99.90;;;;;;4832066;29;20050;-77
2023/07/02 10:04:24;;;;;;;28.38;17.75;;;23.60;99.90;;;;;;4823763;29;20053;-76
2023/07/02 10:06:54;;;;;;;32.03;18.35;;;23.70;99.90;;;;;;4825087;29;20054;-76
2023/07/02 10:09:36;;;;;;;27.27;18.70;;;23.70;99.90;;;;;;4827923;29;20086;-75
2023/07/02 10:12:23;;;;;;;26.83;17.30;;;23.70;99.90;;;;;;4826338;29;20284;-76
2023/07/02 10:14:52;;;;;;;25.60;17.55;;;23.80;99.90;;;;;;4832425;29;20484;-76
2023/07/02 10:17:28;;;;;;;29.30;18.17;;;23.80;99.90;;;;;;4821922;29;20061;-76
2023/07/02 10:19:58;;;;;;;27.38;17.90;;;23.80;99.90;;;;;;4827876;29;20095;-77
2023/07/02 10:22:24;;;;;;;30.67;17.58;;;23.90;99.90;;;;;;4824242;29;20591;-76
2023/07/02 10:25:01;;;;;;;27.15;17.30;;;23.90;99.90;;;;;;4833116;29;20078;-76
2023/07/02 10:27:42;;;;;;;25.20;16.52;;;23.90;99.90;;;;;;4825402;29;20051;-77
2023/07/02 10:30:10;;;;;;;25.17;16.25;;;24.00;99.90;;;;;;4834774;29;20077;-76
2023/07/02 10:32:38;;;;;;;24.30;17.42;;;24.00;99.90;;;;;;4823314;29;20065;-76
2023/07/02 10:35:15;;;;;;;25.75;16.45;;;24.00;99.90;;;;;;4825038;29;20050;-76
2023/07/02 10:37:42;;;;;;;25.92;17.48;;;24.00;99.90;;;;;;4823525;29;20062;-77
2023/07/02 10:40:10;;;;;;;30.27;19.10;;;24.10;99.90;;;;;;4827427;29;20047;-77
2023/07/02 10:42:47;;;;;;;26.98;17.27;;;24.10;99.90;;;;;;4825330;29;20478;-77
2023/07/02 10:45:14;;;;;;;30.85;17.88;;;24.30;99.90;;;;;;4830168;29;20053;-77
2023/07/02 10:47:41;;;;;;;26.45;16.83;;;24.30;99.90;;;;;;4823881;29;20176;-76
2023/07/02 10:50:18;;;;;;;29.40;17.70;;;24.40;99.90;;;;;;4814579;29;20050;-77
2023/07/02 10:52:46;;;;;;;24.13;16.02;;;24.50;99.90;;;;;;4823513;29;20061;-77
2023/07/02 10:55:18;;;;;;;24.00;14.13;;;24.50;99.90;;;;;;4830093;29;20050;-77
2023/07/02 10:57:45;;;;;;;22.60;15.00;;;24.50;99.90;;;;;;4826314;29;20116;-76
2023/07/02 11:00:13;;;;;;;22.75;15.50;;;24.50;99.90;;;;;;4829633;29;20129;-76
2023/07/02 11:02:40;;;;;;;20.58;13.50;;;24.60;99.90;;;;;;4823707;29;20050;-76
2023/07/02 11:05:11;;;;;;;23.40;15.93;;;24.70;99.90;;;;;;4828489;29;20050;-76
2023/07/02 11:07:39;;;;;;;25.75;16.85;;;24.70;99.90;;;;;;4823621;29;20092;-76
2023/07/02 11:10:07;;;;;;;25.75;17.50;;;24.70;99.90;;;;;;4807294;29;20495;-76
2023/07/02 11:12:34;;;;;;;25.60;16.52;;;24.60;99.90;;;;;;4826269;29;20058;-76
2023/07/02 11:15:20;;;;;;;24.10;15.88;;;24.60;99.90;;;;;;4823554;29;20513;-75
2023/07/02 11:17:47;;;;;;;21.38;14.63;;;24.60;99.90;;;;;;4823211;29;20066;-76
2023/07/02 11:20:15;;;;;;;25.02;15.23;;;24.70;99.90;;;;;;4822517;29;20479;-77
2023/07/02 11:22:42;;;;;;;19.67;14.73;;;24.70;99.90;;;;;;4823741;29;20479;-77
2023/07/02 11:25:16;;;;;;;22.90;15.20;;;24.80;99.90;;;;;;4831567;29;20073;-77
2023/07/02 11:27:44;;;;;;;23.60;14.50;;;24.90;99.90;;;;;;4826130;29;20111;-77
2023/07/02 11:30:12;;;;;;;23.88;15.70;;;25.00;99.90;;;;;;4827272;29;20089;-77
2023/07/02 11:32:53;;;;;;;22.65;16.05;;;25.10;99.90;;;;;;4824923;29;20054;-76
2023/07/02 11:35:21;;;;;;;20.65;14.57;;;25.10;99.90;;;;;;4825517;29;20058;-77
2023/07/02 11:37:49;;;;;;;21.23;14.10;;;25.00;99.90;;;;;;4824356;29;20394;-77
2023/07/02 11:40:19;;;;;;;18.10;13.35;;;25.20;99.90;;;;;;4831181;29;20426;-76
2023/07/02 11:42:46;;;;;;;;;;;25.10;99.90;;;;;;4829588;29;20050;-77
2023/07/02 11:45:13;;;;;;;18.70;13.65;;;25.10;99.90;;;;;;4826468;29;19972;-77
2023/07/02 11:47:39;;;;;;;20.50;13.95;;;25.20;99.90;;;;;;4826982;29;20081;-77
2023/07/02 11:50:07;;;;;;;18.02;14.07;;;25.20;99.90;;;;;;4827192;29;20086;-77
2023/07/02 11:52:50;;;;;;;20.30;13.65;;;25.20;99.90;;;;;;4827431;29;20057;-77
2023/07/02 11:55:17;;;;;;;20.15;13.90;;;25.30;99.90;;;;;;4833410;29;20089;-77
2023/07/02 11:57:46;;;;;;;22.67;14.68;;;25.30;99.90;;;;;;4826403;29;20437;-77
2023/07/02 12:00:14;;;;;;;20.27;14.25;;;25.20;99.90;;;;;;4824747;29;20051;-76
2023/07/02 12:02:40;;;;;;;21.45;15.38;;;25.20;99.90;;;;;;4824562;29;20522;-77
2023/07/02 12:05:08;;;;;;;22.42;15.00;;;25.10;99.90;;;;;;4825423;29;20066;-77
2023/07/02 12:07:38;;;;;;;22.42;13.70;;;25.10;99.90;;;;;;4823248;29;20512;-77
2023/07/02 12:10:06;;;;;;;22.50;15.30;;;25.10;99.90;;;;;;4833499;29;20050;-77
2023/07/02 12:12:33;;;;;;;23.73;13.93;;;25.10;99.90;;;;;;4826506;29;20054;-76
2023/07/02 12:15:00;;;;;;;24.73;16.05;;;25.10;99.90;;;;;;4825489;29;20050;-75
2023/07/02 12:17:26;;;;;;;21.10;15.60;;;25.00;99.90;;;;;;4825407;29;20050;-76
2023/07/02 12:19:53;;;;;;;22.58;15.40;;;24.90;99.90;;;;;;4828005;29;20080;-75
2023/07/02 12:22:22;;;;;;;20.83;13.68;;;25.00;99.90;;;;;;4823220;29;20110;-76
2023/07/02 12:24:50;;;;;;;19.95;14.35;;;25.00;99.90;;;;;;4833643;29;20095;-76
2023/07/02 12:27:16;;;;;;;19.60;14.43;;;25.10;99.90;;;;;;4824303;29;20054;-75
2023/07/02 12:29:43;;;;;;;20.00;13.88;;;25.10;99.90;;;;;;4822838;29;20093;-76
2023/07/02 12:32:10;;;;;;;22.88;14.93;;;25.00;99.90;;;;;;4822463;29;20107;-75
2023/07/02 12:34:37;;;;;;;21.50;13.63;;;24.80;99.90;;;;;;4813410;29;20424;-75
2023/07/02 12:37:04;;;;;;;20.25;14.23;;;24.70;99.90;;;;;;4821880;29;20046;-76